Bemis Heights, New York
Current Conditions -  °F | °C
As of 5:22 PM on Tuesday 21 Oct 2014 (Local Time) from KALB Reporting Station
Broken Clouds Broken Clouds  
Wind Chill: 13°   Ceiling: 1600
Heat Index: 13°   Visibility: 10mi
Dew Point: 11°   Wind: 6mph
Humidity: 86%   Direction: 30°NNE
Pressure: 29.93"   Gusts: NA
Location:  43.0236°N, 73.676°W
Report Text: KALB 212122Z 03005KT 10SM SCT010 BKN016 BKN075 13/11 A2993 RMK AO2 RAE05 P0000 T01280106
Loading
Personal Weather Stations






























Interactive Weather Map
Tropical Storm Tracking
New forecast layout! Learn more

10-Day Weather Forecast

Advertisements
Track Severe Weather on mobile